Time;durP1;ratioP1;P1;durP2;ratioP2;P2;SDS_P1;SDS_P2;PMS_P1;PMS_P2;Temp;Humidity;BMP_temperature;BMP_pressure;BME280_temperature;BME280_humidity;BME280_pressure;Samples;Min_cycle;Max_cycle;Signal;HPM_P1;HPM_P2
2022/10/14 00:00:21;;;;;;;46.47;25.98;;;14.30;84.00;;;;;;9180579;19;20096;-62
2022/10/14 00:03:26;;;;;;;50.72;26.65;;;14.30;84.00;;;;;;9179221;19;20078;-61
2022/10/14 00:06:32;;;;;;;49.58;26.88;;;14.30;84.10;;;;;;9177395;19;20527;-63
2022/10/14 00:09:36;;;;;;;46.00;25.67;;;14.30;84.10;;;;;;9181034;19;20010;-61
2022/10/14 00:12:42;;;;;;;48.03;26.75;;;14.30;84.10;;;;;;9180818;19;20502;-64
2022/10/14 00:15:45;;;;;;;51.08;26.58;;;14.30;84.10;;;;;;9181665;19;20090;-61
2022/10/14 00:18:51;;;;;;;48.17;25.92;;;14.30;84.10;;;;;;9179006;19;20078;-62
2022/10/14 00:21:55;;;;;;;43.58;25.15;;;14.30;84.10;;;;;;9182097;19;20022;-60
2022/10/14 00:24:59;;;;;;;49.65;25.67;;;14.30;84.20;;;;;;9176196;19;20044;-63
2022/10/14 00:28:02;;;;;;;44.70;23.90;;;14.30;84.20;;;;;;9181518;19;20026;-61
2022/10/14 00:31:06;;;;;;;46.33;24.90;;;14.30;84.10;;;;;;9180474;19;20038;-60
2022/10/14 00:34:14;;;;;;;43.97;25.17;;;14.30;84.20;;;;;;9179097;19;20086;-61
2022/10/14 00:37:18;;;;;;;53.20;24.73;;;14.30;84.20;;;;;;9180408;19;20039;-61
2022/10/14 00:40:22;;;;;;;46.80;23.60;;;14.30;84.10;;;;;;9180346;19;20022;-61
2022/10/14 00:43:27;;;;;;;44.72;24.00;;;14.30;84.20;;;;;;9178492;19;20018;-62
2022/10/14 00:46:33;;;;;;;43.28;23.25;;;14.30;84.10;;;;;;9178758;19;20018;-62
2022/10/14 00:49:42;;;;;;;43.28;23.58;;;14.30;84.10;;;;;;9177704;19;20025;-61
2022/10/14 00:52:47;;;;;;;41.90;22.95;;;14.30;84.10;;;;;;9178569;19;20421;-61
2022/10/14 00:55:51;;;;;;;44.30;23.08;;;14.30;84.10;;;;;;9179865;19;20022;-60
2022/10/14 00:58:55;;;;;;;38.47;21.67;;;14.20;84.10;;;;;;9177525;19;20082;-60
2022/10/14 01:01:59;;;;;;;33.80;19.75;;;14.20;84.10;;;;;;9180348;19;20021;-62
2022/10/14 01:05:07;;;;;;;32.15;18.15;;;14.20;84.10;;;;;;9177824;19;20023;-66
2022/10/14 01:08:18;;;;;;;26.63;15.75;;;14.20;84.10;;;;;;9178011;19;20007;-62
2022/10/14 01:11:30;;;;;;;27.40;14.77;;;14.20;84.10;;;;;;9180500;19;20332;-61
2022/10/14 01:14:42;;;;;;;26.73;14.63;;;14.20;84.10;;;;;;9179347;19;20019;-64
2022/10/14 01:17:58;;;;;;;26.48;13.60;;;14.10;84.10;;;;;;9176481;19;20371;-62
2022/10/14 01:21:23;;;;;;;23.77;12.98;;;14.10;84.10;;;;;;9179935;19;20396;-61
2022/10/14 01:24:42;;;;;;;25.50;13.13;;;14.10;84.20;;;;;;9172875;19;20018;-59
2022/10/14 01:28:06;;;;;;;25.67;13.00;;;14.10;84.20;;;;;;9179176;19;20022;-61
2022/10/14 01:31:16;;;;;;;26.63;13.35;;;14.00;84.10;;;;;;9176822;19;20061;-62
2022/10/14 01:34:37;;;;;;;25.40;13.65;;;14.00;84.10;;;;;;9177118;19;20039;-61
2022/10/14 01:37:50;;;;;;;25.13;12.70;;;14.00;84.00;;;;;;9176458;19;20077;-60
2022/10/14 01:40:59;;;;;;;22.73;13.38;;;14.10;84.10;;;;;;9178285;19;20015;-61
2022/10/14 01:44:08;;;;;;;32.00;14.02;;;14.00;84.10;;;;;;9178512;19;20010;-62
2022/10/14 01:47:22;;;;;;;24.77;12.85;;;14.00;84.10;;;;;;9175710;19;20015;-61
2022/10/14 01:50:28;;;;;;;26.27;14.05;;;14.00;84.10;;;;;;9173875;19;20018;-63
2022/10/14 01:53:38;;;;;;;27.08;15.18;;;14.00;84.00;;;;;;9175794;19;20386;-62
2022/10/14 01:56:45;;;;;;;29.88;14.57;;;14.00;84.10;;;;;;9176524;19;20022;-61
2022/10/14 01:59:51;;;;;;;27.10;14.57;;;14.00;84.10;;;;;;9172730;19;20022;-61
2022/10/14 02:02:57;;;;;;;27.48;14.60;;;14.00;84.10;;;;;;9175625;19;20052;-61
2022/10/14 02:06:06;;;;;;;24.33;13.80;;;14.00;84.10;;;;;;9172936;19;20010;-61
2022/10/14 02:09:20;;;;;;;28.42;14.98;;;13.90;84.10;;;;;;9176060;19;20104;-62
2022/10/14 02:12:34;;;;;;;30.67;15.65;;;13.90;84.10;;;;;;9174896;19;20349;-61
2022/10/14 02:15:48;;;;;;;34.50;15.57;;;13.90;84.10;;;;;;9177864;19;20606;-62
2022/10/14 02:19:02;;;;;;;29.70;15.48;;;13.90;84.10;;;;;;9175397;19;20085;-62
2022/10/14 02:22:11;;;;;;;29.70;15.75;;;13.90;84.10;;;;;;9177031;19;20011;-61
2022/10/14 02:25:19;;;;;;;28.83;16.35;;;13.90;84.10;;;;;;9172704;19;20019;-60
2022/10/14 02:28:26;;;;;;;26.25;14.05;;;13.90;84.10;;;;;;9176121;19;20023;-60
2022/10/14 02:31:31;;;;;;;33.13;14.20;;;13.90;84.10;;;;;;9174661;19;20364;-62
2022/10/14 02:34:38;;;;;;;27.83;15.52;;;13.90;84.10;;;;;;9181389;19;20014;-63
2022/10/14 02:37:47;;;;;;;28.27;13.55;;;13.90;84.20;;;;;;9182503;19;20445;-60
2022/10/14 02:40:52;;;;;;;25.10;14.52;;;13.90;84.20;;;;;;9182764;19;20052;-62
2022/10/14 02:43:56;;;;;;;31.25;15.68;;;13.90;84.20;;;;;;9184320;19;20037;-62
2022/10/14 02:47:00;;;;;;;27.58;15.00;;;13.80;84.10;;;;;;9181281;19;20526;-61
2022/10/14 02:50:10;;;;;;;25.00;14.55;;;13.80;84.20;;;;;;9183653;19;20019;-60
2022/10/14 02:53:16;;;;;;;26.52;14.52;;;13.80;84.80;;;;;;9184477;19;20021;-62
2022/10/14 02:56:22;;;;;;;26.95;14.43;;;13.80;84.20;;;;;;9182849;19;20082;-62
2022/10/14 02:59:25;;;;;;;29.30;13.77;;;13.80;84.20;;;;;;9181948;19;20479;-60
2022/10/14 03:02:30;;;;;;;27.25;14.25;;;13.80;84.20;;;;;;9181861;19;20019;-62
2022/10/14 03:05:37;;;;;;;26.67;14.45;;;13.80;84.20;;;;;;9181012;19;20774;-60
2022/10/14 03:08:47;;;;;;;22.02;13.23;;;13.80;84.20;;;;;;9181015;19;20018;-60
2022/10/14 03:11:51;;;;;;;29.95;13.07;;;13.80;84.20;;;;;;9181347;19;20483;-62
2022/10/14 03:14:56;;;;;;;24.42;13.32;;;13.80;84.20;;;;;;9181434;19;20032;-61
2022/10/14 03:18:02;;;;;;;22.00;12.57;;;13.70;84.20;;;;;;9181325;19;20364;-61
2022/10/14 03:21:18;;;;;;;26.60;12.80;;;13.70;84.30;;;;;;9181126;19;20109;-63
2022/10/14 03:24:22;;;;;;;23.00;12.68;;;13.70;84.20;;;;;;9176622;19;20024;-60
2022/10/14 03:27:39;;;;;;;19.52;12.40;;;13.70;84.20;;;;;;9181202;19;20388;-61
2022/10/14 03:30:47;;;;;;;19.83;11.52;;;13.70;84.20;;;;;;9181739;19;20035;-65
2022/10/14 03:33:59;;;;;;;19.77;11.90;;;13.70;84.20;;;;;;9180888;19;20020;-62
2022/10/14 03:37:06;;;;;;;19.88;10.27;;;13.60;84.10;;;;;;9181180;19;20415;-60
2022/10/14 03:40:16;;;;;;;20.70;10.43;;;13.60;84.10;;;;;;9178624;19;20387;-61
2022/10/14 03:43:20;;;;;;;;;;;13.60;84.20;;;;;;9177950;19;20014;-61
2022/10/14 03:46:30;;;;;;;21.40;11.55;;;13.60;84.10;;;;;;9179238;19;20252;-61
2022/10/14 03:49:34;;;;;;;20.25;11.20;;;13.60;84.00;;;;;;9179431;19;20048;-60
2022/10/14 03:52:51;;;;;;;24.45;12.20;;;13.60;84.10;;;;;;9179754;19;20022;-61
2022/10/14 03:56:09;;;;;;;20.45;11.77;;;13.60;84.10;;;;;;9180502;19;20368;-63
2022/10/14 03:59:12;;;;;;;21.73;12.45;;;13.50;84.00;;;;;;9179813;19;20026;-63
2022/10/14 04:02:23;;;;;;;21.40;12.57;;;13.50;84.60;;;;;;9179480;19;20018;-62
2022/10/14 04:05:32;;;;;;;28.45;13.10;;;13.50;84.10;;;;;;9178216;19;20648;-63
2022/10/14 04:08:41;;;;;;;28.67;15.13;;;13.50;84.10;;;;;;9180132;19;20021;-62
2022/10/14 04:11:59;;;;;;;23.38;12.30;;;13.50;84.10;;;;;;9179640;19;20073;-61
2022/10/14 04:15:33;;;;;;;25.50;14.37;;;13.50;84.10;;;;;;9180042;19;20023;-62
2022/10/14 04:18:46;;;;;;;27.65;13.77;;;13.50;84.10;;;;;;9177828;19;21090;-61
2022/10/14 04:21:55;;;;;;;27.95;14.38;;;13.50;84.10;;;;;;9181031;19;20030;-62
2022/10/14 04:25:03;;;;;;;29.48;16.48;;;13.50;84.10;;;;;;9174517;19;20010;-61
2022/10/14 04:28:07;;;;;;;31.73;14.98;;;13.50;84.10;;;;;;9179538;19;20014;-62
2022/10/14 04:31:33;;;;;;;31.30;15.63;;;13.50;84.10;;;;;;9178153;19;20025;-61
2022/10/14 04:34:39;;;;;;;27.65;13.95;;;13.40;84.10;;;;;;9179278;19;20423;-60
2022/10/14 04:37:44;;;;;;;31.63;16.13;;;13.40;84.20;;;;;;9176972;19;20095;-60
2022/10/14 04:41:01;;;;;;;31.95;15.55;;;13.40;84.10;;;;;;9178950;19;20506;-61
2022/10/14 04:44:06;;;;;;;29.92;15.05;;;13.40;84.10;;;;;;9178635;19;20014;-63
2022/10/14 04:47:18;;;;;;;28.42;15.35;;;13.40;84.10;;;;;;9179425;19;20031;-61
2022/10/14 04:50:26;;;;;;;35.83;17.25;;;13.40;84.20;;;;;;9178125;19;20023;-59
2022/10/14 04:53:49;;;;;;;30.67;16.58;;;13.40;84.20;;;;;;9179548;19;20021;-60
2022/10/14 04:57:14;;;;;;;31.75;14.55;;;13.40;84.20;;;;;;9175342;19;20042;-63
2022/10/14 05:00:22;;;;;;;28.85;15.38;;;13.40;84.20;;;;;;9175738;19;20044;-59
2022/10/14 05:03:31;;;;;;;28.00;15.32;;;13.40;84.20;;;;;;9177737;19;20136;-60
2022/10/14 05:06:36;;;;;;;30.38;15.13;;;13.40;84.20;;;;;;9175730;19;20082;-61
2022/10/14 05:09:41;;;;;;;28.70;15.10;;;13.30;84.20;;;;;;9178166;19;20482;-61
2022/10/14 05:13:03;;;;;;;30.80;16.90;;;13.30;84.20;;;;;;9177627;19;20482;-63
2022/10/14 05:16:12;;;;;;;33.10;16.38;;;13.30;84.20;;;;;;9177073;19;20010;-61
2022/10/14 05:19:16;;;;;;;35.67;16.95;;;13.30;84.20;;;;;;9176655;19;20467;-64
2022/10/14 05:22:26;;;;;;;42.75;18.10;;;13.30;84.20;;;;;;9176950;19;20507;-63
2022/10/14 05:25:29;;;;;;;47.25;20.58;;;13.30;84.20;;;;;;9173986;19;20022;-60
2022/10/14 05:28:36;;;;;;;35.83;18.33;;;13.20;84.20;;;;;;9176449;19;20014;-63
2022/10/14 05:31:41;;;;;;;38.55;18.27;;;13.20;84.20;;;;;;9176471;19;20043;-63
2022/10/14 05:35:20;;;;;;;40.97;19.42;;;13.20;84.30;;;;;;9175022;19;20034;-62
2022/10/14 05:38:44;;;;;;;29.20;13.07;;;13.20;84.30;;;;;;9176197;19;20011;-60
2022/10/14 05:41:48;;;;;;;42.85;18.35;;;13.20;84.30;;;;;;9177611;19;20010;-62
2022/10/14 05:44:58;;;;;;;40.20;19.23;;;13.10;84.20;;;;;;9175767;19;20015;-62
2022/10/14 05:48:04;;;;;;;37.70;17.70;;;13.10;84.30;;;;;;9175940;19;20021;-59
2022/10/14 05:51:08;;;;;;;41.42;19.58;;;13.10;84.30;;;;;;9176430;19;20015;-63
2022/10/14 05:54:14;;;;;;;37.83;17.77;;;13.10;84.40;;;;;;9175162;19;20014;-61
2022/10/14 05:57:19;;;;;;;45.40;19.55;;;13.10;84.40;;;;;;9175865;19;20019;-61
2022/10/14 06:00:25;;;;;;;42.42;19.48;;;13.10;84.40;;;;;;9172731;19;20029;-61
2022/10/14 06:03:37;;;;;;;43.78;18.95;;;13.10;84.40;;;;;;9177609;19;20431;-60
2022/10/14 06:06:40;;;;;;;40.58;19.05;;;13.10;84.40;;;;;;9173106;19;20024;-60
2022/10/14 06:09:44;;;;;;;45.50;19.67;;;13.10;84.40;;;;;;9175584;19;20026;-63
2022/10/14 06:12:48;;;;;;;47.22;20.52;;;13.10;84.40;;;;;;9177222;19;20019;-62
2022/10/14 06:15:54;;;;;;;53.78;22.23;;;13.00;84.40;;;;;;9177877;19;20019;-61
2022/10/14 06:18:57;;;;;;;49.10;20.65;;;13.00;84.40;;;;;;9174392;19;20085;-60
2022/10/14 06:22:01;;;;;;;53.47;23.08;;;13.00;84.40;;;;;;9176322;19;20082;-60
2022/10/14 06:25:06;;;;;;;52.33;22.17;;;13.00;84.50;;;;;;9169790;19;20022;-62
2022/10/14 06:28:09;;;;;;;52.78;22.33;;;13.00;84.50;;;;;;9175790;19;20018;-63
2022/10/14 06:31:15;;;;;;;58.17;22.30;;;13.00;84.50;;;;;;9172973;19;20401;-61
2022/10/14 06:34:21;;;;;;;56.75;23.92;;;13.00;84.60;;;;;;9175540;19;20035;-61
2022/10/14 06:37:25;;;;;;;63.60;27.20;;;13.00;84.60;;;;;;9174337;19;20018;-61
2022/10/14 06:40:29;;;;;;;69.97;25.45;;;13.00;84.60;;;;;;9173474;19;20026;-60
2022/10/14 06:43:34;;;;;;;72.28;27.65;;;13.00;84.60;;;;;;9175725;19;20018;-61
2022/10/14 06:46:39;;;;;;;70.85;27.35;;;13.00;84.60;;;;;;9175589;19;20010;-63
2022/10/14 06:49:43;;;;;;;81.47;30.20;;;13.00;84.70;;;;;;9176729;19;20037;-61
2022/10/14 06:52:47;;;;;;;89.97;30.83;;;13.00;84.70;;;;;;9175656;19;20015;-60
2022/10/14 06:55:50;;;;;;;;;;;13.00;84.70;;;;;;9175259;19;20026;-61
2022/10/14 06:58:54;;;;;;;78.45;28.88;;;13.00;84.80;;;;;;9171878;19;19923;-62
2022/10/14 07:02:00;;;;;;;88.45;31.05;;;13.00;84.60;;;;;;9172637;19;20022;-63
2022/10/14 07:05:04;;;;;;;86.93;30.65;;;13.00;84.70;;;;;;9169247;19;20397;-60
2022/10/14 07:08:07;;;;;;;94.50;32.25;;;13.00;84.80;;;;;;9174380;19;20086;-60
2022/10/14 07:11:17;;;;;;;91.28;29.95;;;13.10;84.90;;;;;;9174886;19;20025;-60
2022/10/14 07:14:21;;;;;;;102.95;37.35;;;13.10;84.90;;;;;;9167133;19;20745;-63
2022/10/14 07:17:27;;;;;;;84.75;29.98;;;13.10;85.00;;;;;;9167509;19;20025;-60
2022/10/14 07:20:30;;;;;;;90.35;30.45;;;13.10;85.10;;;;;;9173684;19;20042;-60
2022/10/14 07:23:34;;;;;;;96.57;33.80;;;13.10;85.00;;;;;;9170609;19;20388;-61
2022/10/14 07:26:38;;;;;;;99.30;32.30;;;13.20;85.10;;;;;;9173068;19;20082;-61
2022/10/14 07:29:41;;;;;;;91.00;30.88;;;13.20;85.10;;;;;;9174409;19;20059;-60
2022/10/14 07:32:47;;;;;;;92.93;31.33;;;13.20;85.20;;;;;;9174384;19;20093;-61
2022/10/14 07:35:51;;;;;;;91.57;29.75;;;13.20;85.20;;;;;;9173240;19;20393;-61
2022/10/14 07:38:55;;;;;;;96.43;31.75;;;13.20;85.20;;;;;;9171084;19;20078;-61
2022/10/14 07:41:59;;;;;;;;;;;13.30;85.30;;;;;;9172776;19;20023;-61
2022/10/14 07:45:02;;;;;;;91.45;30.95;;;13.30;85.30;;;;;;9175761;19;19923;-61
2022/10/14 07:48:08;;;;;;;89.40;29.02;;;13.30;85.10;;;;;;9176759;19;20392;-63
2022/10/14 07:51:12;;;;;;;77.07;25.85;;;13.30;85.20;;;;;;9182108;19;20019;-61
2022/10/14 07:54:20;;;;;;;76.95;25.25;;;13.40;85.30;;;;;;9181708;19;20082;-61
2022/10/14 07:57:24;;;;;;;71.90;24.27;;;13.40;85.40;;;;;;9181550;19;20073;-61
2022/10/14 08:00:28;;;;;;;74.68;24.25;;;13.40;85.40;;;;;;9178659;19;20696;-60
2022/10/14 08:03:34;;;;;;;83.57;25.92;;;13.50;85.50;;;;;;9173178;19;20110;-62
2022/10/14 08:06:37;;;;;;;74.25;23.48;;;13.50;85.60;;;;;;9167912;19;20019;-64
2022/10/14 08:09:41;;;;;;;72.63;25.33;;;13.50;85.60;;;;;;9170936;19;20121;-61
2022/10/14 08:12:45;;;;;;;72.22;24.88;;;13.60;85.70;;;;;;9176087;19;20011;-62
2022/10/14 08:15:48;;;;;;;65.22;24.42;;;13.60;85.80;;;;;;9173041;19;20112;-59
2022/10/14 08:18:56;;;;;;;64.35;22.98;;;13.70;85.80;;;;;;9172114;19;20022;-62
2022/10/14 08:22:00;;;;;;;64.55;23.00;;;13.70;85.90;;;;;;9167822;19;20040;-61
2022/10/14 08:25:04;;;;;;;69.85;22.48;;;13.70;85.80;;;;;;9163151;19;20030;-61
2022/10/14 08:28:08;;;;;;;;;;;13.70;85.80;;;;;;9169528;19;20011;-62
2022/10/14 08:31:11;;;;;;;66.93;22.50;;;13.80;85.80;;;;;;9169904;19;19929;-62
2022/10/14 08:34:19;;;;;;;65.57;25.60;;;13.80;85.60;;;;;;9169917;19;20669;-63
2022/10/14 08:37:24;;;;;;;59.25;22.65;;;13.90;85.80;;;;;;9171902;19;20101;-64
2022/10/14 08:40:29;;;;;;;69.20;22.35;;;13.90;85.80;;;;;;9165978;19;20018;-62
2022/10/14 08:43:37;;;;;;;57.47;22.23;;;13.90;86.50;;;;;;9170496;19;20022;-61
2022/10/14 08:46:43;;;;;;;70.88;21.67;;;14.00;86.00;;;;;;9168877;19;20046;-63
2022/10/14 08:50:02;;;;;;;68.05;22.55;;;14.00;86.00;;;;;;9165193;19;20042;-64
2022/10/14 08:53:12;;;;;;;65.75;22.55;;;14.00;86.10;;;;;;9166641;19;20015;-62
2022/10/14 08:56:16;;;;;;;59.80;23.45;;;14.10;86.10;;;;;;9168419;19;20010;-62
2022/10/14 08:59:22;;;;;;;76.00;26.65;;;14.10;86.10;;;;;;9172319;19;20015;-63
2022/10/14 09:02:35;;;;;;;62.83;23.55;;;14.10;86.10;;;;;;9171012;19;20026;-62
2022/10/14 09:05:41;;;;;;;65.13;23.17;;;14.20;86.30;;;;;;9164352;19;20029;-63
2022/10/14 09:08:47;;;;;;;63.92;23.98;;;14.20;86.20;;;;;;9162885;19;20025;-63
2022/10/14 09:11:55;;;;;;;67.13;24.77;;;14.20;86.20;;;;;;9171880;19;20010;-63
2022/10/14 09:15:08;;;;;;;62.97;23.25;;;14.30;86.40;;;;;;9171235;19;20741;-61
2022/10/14 09:18:21;;;;;;;63.97;23.17;;;14.40;86.50;;;;;;9168800;19;20022;-67
2022/10/14 09:21:33;;;;;;;57.38;22.63;;;14.40;86.50;;;;;;9160780;19;20010;-62
2022/10/14 09:24:54;;;;;;;66.13;24.42;;;14.40;86.50;;;;;;9162276;19;20010;-63
2022/10/14 09:27:58;;;;;;;64.70;27.15;;;14.50;86.40;;;;;;9171128;19;20097;-63
2022/10/14 09:31:01;;;;;;;66.28;25.42;;;14.50;86.40;;;;;;9169111;19;20018;-67
2022/10/14 09:34:07;;;;;;;59.72;26.42;;;14.50;86.40;;;;;;9171828;19;20014;-62
2022/10/14 09:37:27;;;;;;;66.15;25.25;;;14.60;86.50;;;;;;9174142;19;20480;-61
2022/10/14 09:40:33;;;;;;;58.30;26.00;;;14.60;86.70;;;;;;9169625;19;20019;-63
2022/10/14 09:43:36;;;;;;;67.88;27.85;;;14.70;86.60;;;;;;9169671;19;20348;-63
2022/10/14 09:46:41;;;;;;;62.25;27.55;;;14.70;86.60;;;;;;9172075;19;20022;-60
2022/10/14 09:49:47;;;;;;;;;;;14.80;86.70;;;;;;9172503;19;20628;-61
2022/10/14 09:52:58;;;;;;;54.92;25.33;;;14.80;86.60;;;;;;9172681;19;19922;-61
2022/10/14 09:56:03;;;;;;;55.72;25.42;;;14.90;86.50;;;;;;9161877;19;20437;-61
2022/10/14 09:59:16;;;;;;;48.72;25.42;;;14.90;86.60;;;;;;9173093;19;20048;-62
2022/10/14 10:02:24;;;;;;;46.10;23.50;;;14.90;86.70;;;;;;9171643;19;20015;-61
2022/10/14 10:05:30;;;;;;;46.83;22.65;;;15.00;86.70;;;;;;9168120;19;20030;-65
2022/10/14 10:08:37;;;;;;;44.00;23.13;;;15.00;86.80;;;;;;9166910;19;20014;-62
2022/10/14 10:11:41;;;;;;;38.55;21.63;;;15.10;86.80;;;;;;9165666;19;20046;-62
2022/10/14 10:14:56;;;;;;;;;;;15.10;86.80;;;;;;9173144;19;20414;-63
2022/10/14 10:17:59;;;;;;;34.15;20.88;;;15.20;86.70;;;;;;9174555;19;19933;-62
2022/10/14 10:21:06;;;;;;;33.78;20.25;;;15.30;86.60;;;;;;9162114;19;20513;-61
2022/10/14 10:24:21;;;;;;;33.53;20.60;;;15.30;87.30;;;;;;9176229;19;20015;-62
2022/10/14 10:27:35;;;;;;;34.45;20.35;;;15.30;86.80;;;;;;9176981;19;20014;-62
2022/10/14 10:30:45;;;;;;;30.75;19.48;;;15.40;86.80;;;;;;9176224;19;21147;-61
2022/10/14 10:33:55;;;;;;;30.95;19.15;;;15.40;86.80;;;;;;9176587;19;20013;-62
2022/10/14 10:37:05;;;;;;;37.67;22.17;;;15.40;86.80;;;;;;9175351;19;20053;-61
2022/10/14 10:40:42;;;;;;;36.97;20.25;;;15.50;86.80;;;;;;9169202;19;20025;-64
2022/10/14 10:44:24;;;;;;;32.67;20.73;;;15.60;87.00;;;;;;9173746;19;20014;-63
2022/10/14 10:47:38;;;;;;;35.05;20.08;;;15.60;86.90;;;;;;9169198;19;20504;-62
2022/10/14 10:50:48;;;;;;;33.15;20.52;;;15.60;86.70;;;;;;9166145;19;20011;-61
2022/10/14 10:54:07;;;;;;;39.05;20.67;;;15.70;86.70;;;;;;9162603;19;20038;-63
2022/10/14 10:57:24;;;;;;;31.77;19.55;;;15.70;86.80;;;;;;9172267;19;20019;-62
2022/10/14 11:00:29;;;;;;;32.50;21.45;;;15.80;86.80;;;;;;9164887;19;20018;-65
2022/10/14 11:03:50;;;;;;;33.65;20.65;;;15.80;86.70;;;;;;9168725;19;20102;-62
2022/10/14 11:13:52;;;;;;;40.35;22.30;;;15.90;86.90;;;;;;9180721;19;20503;-65
2022/10/14 11:17:06;;;;;;;35.17;21.25;;;16.00;86.90;;;;;;9177867;19;20044;-63
2022/10/14 11:20:23;;;;;;;41.83;22.33;;;16.10;86.80;;;;;;9176062;19;20536;-61
2022/10/14 11:23:44;;;;;;;30.30;18.60;;;16.10;86.80;;;;;;9176500;19;20089;-61
2022/10/14 11:26:59;;;;;;;33.67;19.27;;;16.10;86.80;;;;;;9176266;19;20010;-64
2022/10/14 11:30:18;;;;;;;35.85;21.70;;;16.20;86.70;;;;;;9174758;19;20026;-62
2022/10/14 11:33:39;;;;;;;35.45;20.67;;;16.20;86.80;;;;;;9177288;19;20056;-63
2022/10/14 11:36:54;;;;;;;33.25;20.10;;;16.20;86.70;;;;;;9181138;19;20672;-62
2022/10/14 11:40:02;;;;;;;34.00;22.48;;;16.20;86.60;;;;;;9177222;19;20474;-64
2022/10/14 11:43:19;;;;;;;35.63;21.73;;;16.30;86.70;;;;;;9180913;19;20475;-60
2022/10/14 11:46:28;;;;;;;32.65;20.52;;;16.30;86.60;;;;;;9181728;19;20528;-61
2022/10/14 11:49:37;;;;;;;36.03;21.17;;;16.40;86.10;;;;;;9172488;19;20082;-63
2022/10/14 11:52:46;;;;;;;31.40;20.00;;;16.40;86.70;;;;;;9179294;19;21036;-61
2022/10/14 11:55:56;;;;;;;30.70;19.52;;;16.50;86.50;;;;;;9181925;19;20539;-62
2022/10/14 11:59:04;;;;;;;31.35;19.85;;;16.50;86.30;;;;;;9182041;19;20478;-61
2022/10/14 12:02:34;;;;;;;29.75;18.63;;;16.60;86.20;;;;;;9181858;19;20007;-65
2022/10/14 12:05:46;;;;;;;29.42;18.40;;;16.60;86.20;;;;;;9178195;19;20616;-62
2022/10/14 12:08:56;;;;;;;33.30;20.17;;;16.60;86.00;;;;;;9178632;19;20415;-62
2022/10/14 12:12:04;;;;;;;25.52;17.08;;;16.60;86.00;;;;;;9180242;19;20374;-61
2022/10/14 12:15:16;;;;;;;24.20;16.58;;;16.60;86.00;;;;;;9181128;19;20014;-62
2022/10/14 12:18:22;;;;;;;24.27;16.95;;;16.60;86.10;;;;;;9181095;19;20022;-60
2022/10/14 12:21:33;;;;;;;27.73;18.60;;;16.60;86.60;;;;;;9173825;19;20022;-62
2022/10/14 12:24:40;;;;;;;28.38;18.65;;;16.60;86.10;;;;;;9181127;19;20483;-61
2022/10/14 12:27:44;;;;;;;26.38;18.40;;;16.60;86.80;;;;;;9181025;19;20082;-61
2022/10/14 12:30:50;;;;;;;27.10;18.05;;;16.60;86.10;;;;;;9181111;19;20007;-63
2022/10/14 12:34:24;;;;;;;23.45;16.42;;;16.60;86.10;;;;;;9181727;19;20011;-62
2022/10/14 12:37:55;;;;;;;28.73;18.35;;;16.60;86.20;;;;;;9179996;19;20028;-62
2022/10/14 12:41:35;;;;;;;25.67;17.63;;;16.60;86.20;;;;;;9177778;19;20015;-61
2022/10/14 12:44:48;;;;;;;23.85;16.55;;;16.60;86.20;;;;;;9179968;19;20022;-61
2022/10/14 12:48:03;;;;;;;24.30;16.33;;;16.60;86.10;;;;;;9179158;19;20011;-62
2022/10/14 12:51:13;;;;;;;25.17;17.83;;;16.60;86.30;;;;;;9179765;19;20022;-61
2022/10/14 12:54:19;;;;;;;25.02;16.38;;;16.60;86.10;;;;;;9180075;19;20021;-62
2022/10/14 12:57:29;;;;;;;26.23;16.40;;;16.60;86.10;;;;;;9180365;19;20040;-65
2022/10/14 13:00:37;;;;;;;22.58;16.77;;;16.60;86.20;;;;;;9167921;19;20092;-63
2022/10/14 13:03:44;;;;;;;23.65;16.27;;;16.60;86.20;;;;;;9162564;19;20015;-62
2022/10/14 13:07:18;;;;;;;25.35;17.17;;;16.60;86.20;;;;;;9159897;19;20051;-63
2022/10/14 13:10:47;;;;;;;21.58;14.75;;;16.50;86.20;;;;;;9171644;19;20011;-63
2022/10/14 13:13:58;;;;;;;22.85;13.73;;;16.60;86.10;;;;;;9173994;19;20019;-60
2022/10/14 13:17:03;;;;;;;18.98;13.40;;;16.50;86.10;;;;;;9177084;19;20019;-63
2022/10/14 13:20:53;;;;;;;18.17;12.73;;;16.50;86.10;;;;;;9172009;19;20030;-63
2022/10/14 13:23:59;;;;;;;18.17;13.82;;;16.50;86.20;;;;;;9176623;19;20035;-61
2022/10/14 13:27:13;;;;;;;24.20;13.60;;;16.50;86.10;;;;;;9176857;19;20062;-61
2022/10/14 13:30:21;;;;;;;22.08;14.02;;;16.50;86.20;;;;;;9177378;19;20366;-60
2022/10/14 13:33:33;;;;;;;25.63;14.65;;;16.50;86.20;;;;;;9176428;19;20010;-62
2022/10/14 13:36:41;;;;;;;21.15;14.55;;;16.50;86.20;;;;;;9174224;19;20010;-61
2022/10/14 13:39:44;;;;;;;21.92;14.68;;;16.50;86.20;;;;;;9173928;19;20014;-61
2022/10/14 13:42:53;;;;;;;19.00;14.23;;;16.50;86.20;;;;;;9178862;19;20010;-61
2022/10/14 13:46:03;;;;;;;23.13;14.85;;;16.50;86.30;;;;;;9177191;19;20025;-65
2022/10/14 13:49:12;;;;;;;24.95;15.60;;;16.50;86.30;;;;;;9174620;19;20010;-65
2022/10/14 13:52:21;;;;;;;21.35;14.25;;;16.50;86.30;;;;;;9173800;19;20368;-61
2022/10/14 13:55:28;;;;;;;20.80;13.73;;;16.50;86.40;;;;;;9175782;19;20015;-62
2022/10/14 13:58:34;;;;;;;13.30;10.60;;;16.50;86.40;;;;;;9173600;19;20014;-63
2022/10/14 14:01:40;;;;;;;13.35;10.50;;;16.50;86.40;;;;;;9170874;19;20085;-64
2022/10/14 14:04:50;;;;;;;12.80;9.73;;;16.40;86.40;;;;;;9171245;19;20014;-63
2022/10/14 14:07:54;;;;;;;13.32;9.93;;;16.40;86.50;;;;;;9174249;19;20018;-64
2022/10/14 14:11:20;;;;;;;15.40;9.43;;;16.40;86.50;;;;;;9177853;19;20023;-62
2022/10/14 14:14:28;;;;;;;11.68;9.20;;;;;;;;;;9177113;19;20509;-61
2022/10/14 14:17:33;;;;;;;14.57;9.50;;;16.40;86.10;;;;;;9174990;19;20134;-62
2022/10/14 14:20:37;;;;;;;13.18;10.30;;;16.40;86.60;;;;;;9171000;19;20546;-62
2022/10/14 14:23:49;;;;;;;;;;;16.50;86.60;;;;;;9176857;19;20022;-62
2022/10/14 14:26:55;;;;;;;12.50;10.23;;;16.40;86.60;;;;;;9176458;19;19915;-63
2022/10/14 14:30:07;;;;;;;13.82;9.38;;;16.40;86.50;;;;;;9180830;19;20019;-65
2022/10/14 14:33:14;;;;;;;10.18;8.38;;;16.40;86.50;;;;;;9184526;19;20007;-62
2022/10/14 14:36:19;;;;;;;9.43;7.95;;;16.50;86.60;;;;;;9184139;19;20019;-64
2022/10/14 14:39:36;;;;;;;7.25;6.43;;;16.50;86.60;;;;;;9184439;19;20082;-62
2022/10/14 14:42:42;;;;;;;11.48;7.35;;;16.50;86.70;;;;;;9182369;19;20094;-62
2022/10/14 14:45:47;;;;;;;8.10;5.78;;;16.50;86.70;;;;;;9182028;19;20503;-62
2022/10/14 14:48:55;;;;;;;7.38;5.60;;;16.50;86.70;;;;;;9177957;19;20086;-62
2022/10/14 14:51:59;;;;;;;6.30;5.28;;;16.50;86.70;;;;;;9180354;19;20017;-61
2022/10/14 14:55:03;;;;;;;7.38;5.63;;;16.50;86.70;;;;;;9184164;19;20022;-61
2022/10/14 14:58:14;;;;;;;8.38;5.65;;;16.50;86.70;;;;;;9184729;19;20006;-63
2022/10/14 15:01:23;;;;;;;7.20;5.63;;;16.50;86.70;;;;;;9182484;19;20364;-62
2022/10/14 15:04:33;;;;;;;8.80;5.70;;;16.50;86.80;;;;;;9183558;19;20041;-59
2022/10/14 15:07:38;;;;;;;6.07;5.28;;;16.50;86.80;;;;;;9183764;19;20094;-64
2022/10/14 15:10:49;;;;;;;8.63;5.07;;;16.50;86.80;;;;;;9181807;19;20019;-65
2022/10/14 15:13:55;;;;;;;7.60;5.75;;;16.50;86.90;;;;;;9175141;19;20583;-65
2022/10/14 15:17:04;;;;;;;8.27;6.15;;;16.40;86.70;;;;;;9174594;19;20022;-63
2022/10/14 15:20:29;;;;;;;8.00;5.78;;;16.40;86.80;;;;;;9165987;19;20371;-63
2022/10/14 15:23:41;;;;;;;6.60;5.57;;;16.40;86.90;;;;;;9170478;19;20045;-61
2022/10/14 15:26:46;;;;;;;7.72;5.78;;;16.40;86.80;;;;;;9169309;19;20014;-62
2022/10/14 15:30:30;;;;;;;6.22;5.03;;;16.50;86.80;;;;;;9170777;19;20021;-65
2022/10/14 15:33:36;;;;;;;9.32;5.95;;;16.50;87.00;;;;;;9175279;19;20485;-63
2022/10/14 15:36:39;;;;;;;7.22;5.80;;;16.40;86.80;;;;;;9174182;19;20022;-61
2022/10/14 15:39:43;;;;;;;9.05;5.78;;;16.40;86.90;;;;;;9175766;19;20082;-62
2022/10/14 15:42:48;;;;;;;10.48;6.43;;;16.40;86.90;;;;;;9175549;19;20647;-62
2022/10/14 15:49:17;;;;;;;8.88;6.32;;;16.40;86.90;;;;;;9174539;19;20029;-64
2022/10/14 15:52:21;;;;;;;9.40;7.32;;;16.40;87.00;;;;;;9174451;19;20021;-63
2022/10/14 15:55:34;;;;;;;10.43;7.50;;;16.40;87.00;;;;;;9173715;19;20018;-64
2022/10/14 15:58:37;;;;;;;9.30;7.03;;;16.40;87.00;;;;;;9170676;19;20057;-63
2022/10/14 16:01:43;;;;;;;9.43;6.70;;;16.40;87.00;;;;;;9172822;19;20018;-64
2022/10/14 16:04:50;;;;;;;12.07;7.88;;;16.40;87.10;;;;;;9174728;19;20380;-63
2022/10/14 16:08:15;;;;;;;9.52;7.60;;;16.30;87.00;;;;;;9175052;19;20014;-63
2022/10/14 16:11:23;;;;;;;12.45;7.20;;;16.30;87.00;;;;;;9169046;19;20035;-63
2022/10/14 16:14:27;;;;;;;9.80;6.90;;;16.30;87.10;;;;;;9174015;19;20399;-63